Norman Manley International Airport
MKJP : now visible

Airfield :











YOU CAN JOIN US ON...

 
LOGIN :

Register | Disclaimer

   EN    FR    IT 

 









Legend :    VFR   Marginal VFR   IFR   Intensive IFR   Very Intensive IFR
Visi :
Ceiling :
>= 8 km
>= 3000ft
5 to 8 km
1000 to 3000 ft
1500m to 5 km
500 to 1000 ft
800 to 1500m
200 to 500 ft
< 800m
< 200 ft
Symbols :   Thunderstorms  Fog  Heavy snow  Heavy precipitations  Wind > 20 kt






- Airport Elevation : 10 ft
- IATA code : KIN


MKJP - Norman Manley International

CURRENT METAR :
  • 212300Z 13018G28KT 2000 +SHRA BKN012 BKN014CB 25/24 Q1011

EXPIRED METARs :
  • 222244Z 20017G27KT 8000 4000E SHRA BKN016 BKN018 25/23 Q1010
  • 212200Z 13017KT 9999 BKN020 27/25 Q1009
  • 212100Z 17013KT 9999 -RA FEW020 26/24 Q1009

TAF TAF MKJP
Valid from the 22 at 00:00 until the 23 at 00:00 UTC


212315Z 2200/2224 15015KT 9999 SCT022
PROB30
TEMPO 2200/2206 SHRA BKN018 FEW020CB
TEMPO 2214/2224 4000 SHRA BKN018 FEW020CB
MKJK FIR / North America



MET'MAP, your aeronautical weather chart ! - Copyright ORBIFLY December 2007 - Disclaimer

ORBIFLY MET'MAP TEAM :

Programming & Development : Alexandra Zaïnal
Concept & original design : Baudouin d'Aumeries
Assistance for programming : Marc-Olivier Méhu
Technical & hardware support : Manuel Goepfert

Contact : metmap@orbifly.com




SOURCES & CREDITS :

   NOAA       Earth
Advisory